sensor_id;sensor_type;location;lat;lon;timestamp;P1;durP1;ratioP1;P2;durP2;ratioP2
6374;SDS011;35400;45.472;-122.822;2023-01-16T00:00:13;0.20;;;0.20;;
6374;SDS011;35400;45.472;-122.822;2023-01-16T00:02:41;0.53;;;0.30;;
6374;SDS011;35400;45.472;-122.822;2023-01-16T00:05:08;0.30;;;0.30;;
6374;SDS011;35400;45.472;-122.822;2023-01-16T00:07:35;0.37;;;0.37;;
6374;SDS011;35400;45.472;-122.822;2023-01-16T00:10:03;0.90;;;0.40;;
6374;SDS011;35400;45.472;-122.822;2023-01-16T00:12:31;0.37;;;0.30;;
6374;SDS011;35400;45.472;-122.822;2023-01-16T00:14:58;0.30;;;0.20;;
6374;SDS011;35400;45.472;-122.822;2023-01-16T00:17:25;0.40;;;0.30;;
6374;SDS011;35400;45.472;-122.822;2023-01-16T00:19:51;0.37;;;0.37;;
6374;SDS011;35400;45.472;-122.822;2023-01-16T00:22:18;0.90;;;0.40;;
6374;SDS011;35400;45.472;-122.822;2023-01-16T00:24:45;0.20;;;0.20;;
6374;SDS011;35400;45.472;-122.822;2023-01-16T00:27:12;0.20;;;0.20;;
6374;SDS011;35400;45.472;-122.822;2023-01-16T00:29:39;0.40;;;0.40;;
6374;SDS011;35400;45.472;-122.822;2023-01-16T00:32:06;0.40;;;0.40;;
6374;SDS011;35400;45.472;-122.822;2023-01-16T00:34:35;1.33;;;0.70;;
6374;SDS011;35400;45.472;-122.822;2023-01-16T00:37:02;1.13;;;0.50;;
6374;SDS011;35400;45.472;-122.822;2023-01-16T00:39:29;0.50;;;0.47;;
6374;SDS011;35400;45.472;-122.822;2023-01-16T00:41:56;0.33;;;0.33;;
6374;SDS011;35400;45.472;-122.822;2023-01-16T00:44:23;0.30;;;0.30;;
6374;SDS011;35400;45.472;-122.822;2023-01-16T00:46:50;0.30;;;0.30;;
6374;SDS011;35400;45.472;-122.822;2023-01-16T00:49:16;0.20;;;0.20;;
6374;SDS011;35400;45.472;-122.822;2023-01-16T00:51:43;0.30;;;0.30;;
6374;SDS011;35400;45.472;-122.822;2023-01-16T00:54:10;0.37;;;0.37;;
6374;SDS011;35400;45.472;-122.822;2023-01-16T00:56:37;0.40;;;0.40;;
6374;SDS011;35400;45.472;-122.822;2023-01-16T00:59:04;0.20;;;0.20;;
6374;SDS011;35400;45.472;-122.822;2023-01-16T01:01:31;0.40;;;0.40;;
6374;SDS011;35400;45.472;-122.822;2023-01-16T01:03:58;0.40;;;0.40;;
6374;SDS011;35400;45.472;-122.822;2023-01-16T01:06:25;1.57;;;0.50;;
6374;SDS011;35400;45.472;-122.822;2023-01-16T01:08:52;0.40;;;0.40;;
6374;SDS011;35400;45.472;-122.822;2023-01-16T01:11:19;1.27;;;0.50;;
6374;SDS011;35400;45.472;-122.822;2023-01-16T01:13:46;0.33;;;0.33;;
6374;SDS011;35400;45.472;-122.822;2023-01-16T01:16:13;0.87;;;0.50;;
6374;SDS011;35400;45.472;-122.822;2023-01-16T01:18:40;0.30;;;0.30;;
6374;SDS011;35400;45.472;-122.822;2023-01-16T01:21:08;0.40;;;0.40;;
6374;SDS011;35400;45.472;-122.822;2023-01-16T01:23:35;0.33;;;0.30;;
6374;SDS011;35400;45.472;-122.822;2023-01-16T01:26:06;0.73;;;0.47;;
6374;SDS011;35400;45.472;-122.822;2023-01-16T01:28:35;0.30;;;0.30;;
6374;SDS011;35400;45.472;-122.822;2023-01-16T01:31:06;0.40;;;0.40;;
6374;SDS011;35400;45.472;-122.822;2023-01-16T01:33:34;0.33;;;0.33;;
6374;SDS011;35400;45.472;-122.822;2023-01-16T01:36:01;0.67;;;0.40;;
6374;SDS011;35400;45.472;-122.822;2023-01-16T01:38:29;0.83;;;0.40;;
6374;SDS011;35400;45.472;-122.822;2023-01-16T01:40:55;0.40;;;0.30;;
6374;SDS011;35400;45.472;-122.822;2023-01-16T01:43:38;0.40;;;0.30;;
6374;SDS011;35400;45.472;-122.822;2023-01-16T01:46:07;0.43;;;0.40;;
6374;SDS011;35400;45.472;-122.822;2023-01-16T01:48:49;0.30;;;0.30;;
6374;SDS011;35400;45.472;-122.822;2023-01-16T01:51:22;0.73;;;0.40;;
6374;SDS011;35400;45.472;-122.822;2023-01-16T01:54:01;0.77;;;0.53;;
6374;SDS011;35400;45.472;-122.822;2023-01-16T01:59:08;0.60;;;0.60;;
6374;SDS011;35400;45.472;-122.822;2023-01-16T02:01:40;1.13;;;0.40;;
6374;SDS011;35400;45.472;-122.822;2023-01-16T02:04:09;0.90;;;0.40;;
6374;SDS011;35400;45.472;-122.822;2023-01-16T02:06:43;0.37;;;0.33;;
6374;SDS011;35400;45.472;-122.822;2023-01-16T02:09:16;1.10;;;0.50;;
6374;SDS011;35400;45.472;-122.822;2023-01-16T02:12:29;0.87;;;0.43;;
6374;SDS011;35400;45.472;-122.822;2023-01-16T02:14:39;1.03;;;0.50;;
6374;SDS011;35400;45.472;-122.822;2023-01-16T02:17:16;3.00;;;0.57;;
6374;SDS011;35400;45.472;-122.822;2023-01-16T02:20:07;2.70;;;0.57;;
6374;SDS011;35400;45.472;-122.822;2023-01-16T02:31:17;0.50;;;0.50;;
6374;SDS011;35400;45.472;-122.822;2023-01-16T02:43:03;1.30;;;0.60;;
6374;SDS011;35400;45.472;-122.822;2023-01-16T02:51:35;1.73;;;0.93;;
6374;SDS011;35400;45.472;-122.822;2023-01-16T02:54:14;2.00;;;0.70;;
6374;SDS011;35400;45.472;-122.822;2023-01-16T02:56:51;1.30;;;0.80;;
6374;SDS011;35400;45.472;-122.822;2023-01-16T02:59:44;0.83;;;0.57;;
6374;SDS011;35400;45.472;-122.822;2023-01-16T03:02:11;3.30;;;1.10;;
6374;SDS011;35400;45.472;-122.822;2023-01-16T03:04:42;1.67;;;0.60;;
6374;SDS011;35400;45.472;-122.822;2023-01-16T03:10:03;0.60;;;0.57;;
6374;SDS011;35400;45.472;-122.822;2023-01-16T03:28:59;1.00;;;0.90;;
6374;SDS011;35400;45.472;-122.822;2023-01-16T03:37:03;0.97;;;0.73;;
6374;SDS011;35400;45.472;-122.822;2023-01-16T03:39:38;0.97;;;0.83;;
6374;SDS011;35400;45.472;-122.822;2023-01-16T03:42:18;1.43;;;1.00;;
6374;SDS011;35400;45.472;-122.822;2023-01-16T03:45:21;2.53;;;1.00;;
6374;SDS011;35400;45.472;-122.822;2023-01-16T03:48:10;2.23;;;1.00;;
6374;SDS011;35400;45.472;-122.822;2023-01-16T03:50:59;3.07;;;0.83;;
6374;SDS011;35400;45.472;-122.822;2023-01-16T03:53:37;3.37;;;1.20;;
6374;SDS011;35400;45.472;-122.822;2023-01-16T03:58:46;2.20;;;0.80;;
6374;SDS011;35400;45.472;-122.822;2023-01-16T04:03:42;1.83;;;0.67;;
6374;SDS011;35400;45.472;-122.822;2023-01-16T04:08:59;1.13;;;1.00;;
6374;SDS011;35400;45.472;-122.822;2023-01-16T04:11:31;2.20;;;1.87;;
6374;SDS011;35400;45.472;-122.822;2023-01-16T04:14:00;1.73;;;1.00;;
6374;SDS011;35400;45.472;-122.822;2023-01-16T04:16:29;3.23;;;2.40;;
6374;SDS011;35400;45.472;-122.822;2023-01-16T04:18:56;6.47;;;1.60;;
6374;SDS011;35400;45.472;-122.822;2023-01-16T04:21:26;1.60;;;0.80;;
6374;SDS011;35400;45.472;-122.822;2023-01-16T04:23:54;2.03;;;1.00;;
6374;SDS011;35400;45.472;-122.822;2023-01-16T04:26:22;3.43;;;1.50;;
6374;SDS011;35400;45.472;-122.822;2023-01-16T04:28:49;2.10;;;1.10;;
6374;SDS011;35400;45.472;-122.822;2023-01-16T04:31:24;3.10;;;1.43;;
6374;SDS011;35400;45.472;-122.822;2023-01-16T04:33:53;2.80;;;1.20;;
6374;SDS011;35400;45.472;-122.822;2023-01-16T04:36:20;2.50;;;0.77;;
6374;SDS011;35400;45.472;-122.822;2023-01-16T04:38:47;1.70;;;0.70;;
6374;SDS011;35400;45.472;-122.822;2023-01-16T04:41:14;3.17;;;1.40;;
6374;SDS011;35400;45.472;-122.822;2023-01-16T04:44:02;2.53;;;1.80;;
6374;SDS011;35400;45.472;-122.822;2023-01-16T04:46:30;4.80;;;1.47;;
6374;SDS011;35400;45.472;-122.822;2023-01-16T04:48:57;2.03;;;1.00;;
6374;SDS011;35400;45.472;-122.822;2023-01-16T04:51:24;1.87;;;0.83;;
6374;SDS011;35400;45.472;-122.822;2023-01-16T04:53:51;2.50;;;1.17;;
6374;SDS011;35400;45.472;-122.822;2023-01-16T04:56:18;3.90;;;1.10;;
6374;SDS011;35400;45.472;-122.822;2023-01-16T04:58:45;3.87;;;1.40;;
6374;SDS011;35400;45.472;-122.822;2023-01-16T05:01:12;4.67;;;1.67;;
6374;SDS011;35400;45.472;-122.822;2023-01-16T05:03:40;1.63;;;1.17;;
6374;SDS011;35400;45.472;-122.822;2023-01-16T05:06:07;5.13;;;1.30;;
6374;SDS011;35400;45.472;-122.822;2023-01-16T05:08:34;2.37;;;0.83;;
6374;SDS011;35400;45.472;-122.822;2023-01-16T05:11:01;2.23;;;1.00;;
6374;SDS011;35400;45.472;-122.822;2023-01-16T05:13:28;1.43;;;0.73;;
6374;SDS011;35400;45.472;-122.822;2023-01-16T05:15:55;3.33;;;1.13;;
6374;SDS011;35400;45.472;-122.822;2023-01-16T05:18:23;2.20;;;1.10;;
6374;SDS011;35400;45.472;-122.822;2023-01-16T05:20:50;4.10;;;0.90;;
6374;SDS011;35400;45.472;-122.822;2023-01-16T05:23:17;3.30;;;1.43;;
6374;SDS011;35400;45.472;-122.822;2023-01-16T05:25:44;2.53;;;0.77;;
6374;SDS011;35400;45.472;-122.822;2023-01-16T05:28:11;2.37;;;1.03;;
6374;SDS011;35400;45.472;-122.822;2023-01-16T05:30:38;2.67;;;1.20;;
6374;SDS011;35400;45.472;-122.822;2023-01-16T05:33:05;3.17;;;0.87;;
6374;SDS011;35400;45.472;-122.822;2023-01-16T05:35:32;4.90;;;1.30;;
6374;SDS011;35400;45.472;-122.822;2023-01-16T05:37:59;2.87;;;0.73;;
6374;SDS011;35400;45.472;-122.822;2023-01-16T05:40:26;1.13;;;0.70;;
6374;SDS011;35400;45.472;-122.822;2023-01-16T05:42:53;2.50;;;1.10;;
6374;SDS011;35400;45.472;-122.822;2023-01-16T05:45:19;2.67;;;1.03;;
6374;SDS011;35400;45.472;-122.822;2023-01-16T05:47:46;2.90;;;1.20;;
6374;SDS011;35400;45.472;-122.822;2023-01-16T05:50:13;4.30;;;1.67;;
6374;SDS011;35400;45.472;-122.822;2023-01-16T05:52:41;2.60;;;1.90;;
6374;SDS011;35400;45.472;-122.822;2023-01-16T05:55:08;2.70;;;1.37;;
6374;SDS011;35400;45.472;-122.822;2023-01-16T05:57:35;2.60;;;1.10;;
6374;SDS011;35400;45.472;-122.822;2023-01-16T06:00:02;5.80;;;1.60;;
6374;SDS011;35400;45.472;-122.822;2023-01-16T06:02:31;3.60;;;1.40;;
6374;SDS011;35400;45.472;-122.822;2023-01-16T06:04:58;6.80;;;2.17;;
6374;SDS011;35400;45.472;-122.822;2023-01-16T06:07:25;3.73;;;1.13;;
6374;SDS011;35400;45.472;-122.822;2023-01-16T06:09:52;1.27;;;0.70;;
6374;SDS011;35400;45.472;-122.822;2023-01-16T06:12:19;3.37;;;1.00;;
6374;SDS011;35400;45.472;-122.822;2023-01-16T06:14:46;3.00;;;1.87;;
6374;SDS011;35400;45.472;-122.822;2023-01-16T06:17:14;1.43;;;0.83;;
6374;SDS011;35400;45.472;-122.822;2023-01-16T06:19:41;3.17;;;1.50;;
6374;SDS011;35400;45.472;-122.822;2023-01-16T06:22:09;3.23;;;1.33;;
6374;SDS011;35400;45.472;-122.822;2023-01-16T06:24:37;3.57;;;0.70;;
6374;SDS011;35400;45.472;-122.822;2023-01-16T06:27:04;3.50;;;1.13;;
6374;SDS011;35400;45.472;-122.822;2023-01-16T06:29:31;4.67;;;1.40;;
6374;SDS011;35400;45.472;-122.822;2023-01-16T06:31:58;3.27;;;1.73;;
6374;SDS011;35400;45.472;-122.822;2023-01-16T06:34:25;5.07;;;1.10;;
6374;SDS011;35400;45.472;-122.822;2023-01-16T06:36:51;2.53;;;1.30;;
6374;SDS011;35400;45.472;-122.822;2023-01-16T06:39:18;2.10;;;0.80;;
6374;SDS011;35400;45.472;-122.822;2023-01-16T06:41:45;5.10;;;1.10;;
6374;SDS011;35400;45.472;-122.822;2023-01-16T06:44:12;3.77;;;1.03;;
6374;SDS011;35400;45.472;-122.822;2023-01-16T06:46:39;3.60;;;1.40;;
6374;SDS011;35400;45.472;-122.822;2023-01-16T06:49:05;4.13;;;1.40;;
6374;SDS011;35400;45.472;-122.822;2023-01-16T06:51:33;6.10;;;3.13;;
6374;SDS011;35400;45.472;-122.822;2023-01-16T06:53:59;2.93;;;1.30;;
6374;SDS011;35400;45.472;-122.822;2023-01-16T06:56:29;3.53;;;1.83;;
6374;SDS011;35400;45.472;-122.822;2023-01-16T06:58:56;3.03;;;1.30;;
6374;SDS011;35400;45.472;-122.822;2023-01-16T07:01:23;4.43;;;1.47;;
6374;SDS011;35400;45.472;-122.822;2023-01-16T07:03:49;3.37;;;0.93;;
6374;SDS011;35400;45.472;-122.822;2023-01-16T07:06:16;3.73;;;0.80;;
6374;SDS011;35400;45.472;-122.822;2023-01-16T07:08:43;5.03;;;1.37;;
6374;SDS011;35400;45.472;-122.822;2023-01-16T07:11:11;3.50;;;1.57;;
6374;SDS011;35400;45.472;-122.822;2023-01-16T07:13:38;1.77;;;1.50;;
6374;SDS011;35400;45.472;-122.822;2023-01-16T07:16:05;2.83;;;1.13;;
6374;SDS011;35400;45.472;-122.822;2023-01-16T07:18:50;2.83;;;1.17;;
6374;SDS011;35400;45.472;-122.822;2023-01-16T07:21:36;3.73;;;1.33;;
6374;SDS011;35400;45.472;-122.822;2023-01-16T07:24:25;1.93;;;0.90;;
6374;SDS011;35400;45.472;-122.822;2023-01-16T07:26:56;4.60;;;0.90;;
6374;SDS011;35400;45.472;-122.822;2023-01-16T07:29:26;3.10;;;0.93;;
6374;SDS011;35400;45.472;-122.822;2023-01-16T07:31:55;6.07;;;1.53;;
6374;SDS011;35400;45.472;-122.822;2023-01-16T07:34:24;4.10;;;0.83;;
6374;SDS011;35400;45.472;-122.822;2023-01-16T07:36:51;2.40;;;0.87;;
6374;SDS011;35400;45.472;-122.822;2023-01-16T07:39:18;4.73;;;1.10;;
6374;SDS011;35400;45.472;-122.822;2023-01-16T07:41:44;4.20;;;1.20;;
6374;SDS011;35400;45.472;-122.822;2023-01-16T07:44:15;3.60;;;0.90;;
6374;SDS011;35400;45.472;-122.822;2023-01-16T07:46:41;2.50;;;0.93;;
6374;SDS011;35400;45.472;-122.822;2023-01-16T07:49:08;4.60;;;1.00;;
6374;SDS011;35400;45.472;-122.822;2023-01-16T07:51:35;1.63;;;0.60;;
6374;SDS011;35400;45.472;-122.822;2023-01-16T07:54:02;4.53;;;1.40;;
6374;SDS011;35400;45.472;-122.822;2023-01-16T07:56:29;3.60;;;0.90;;
6374;SDS011;35400;45.472;-122.822;2023-01-16T07:58:56;6.93;;;1.47;;
6374;SDS011;35400;45.472;-122.822;2023-01-16T08:01:23;3.17;;;1.07;;
6374;SDS011;35400;45.472;-122.822;2023-01-16T08:03:51;2.77;;;1.00;;
6374;SDS011;35400;45.472;-122.822;2023-01-16T08:06:18;3.90;;;0.90;;
6374;SDS011;35400;45.472;-122.822;2023-01-16T08:08:45;3.40;;;0.93;;
6374;SDS011;35400;45.472;-122.822;2023-01-16T08:11:12;4.93;;;1.37;;
6374;SDS011;35400;45.472;-122.822;2023-01-16T08:13:58;4.30;;;0.90;;
6374;SDS011;35400;45.472;-122.822;2023-01-16T08:16:24;2.93;;;0.73;;
6374;SDS011;35400;45.472;-122.822;2023-01-16T08:18:51;2.00;;;0.80;;
6374;SDS011;35400;45.472;-122.822;2023-01-16T08:21:18;3.43;;;1.23;;
6374;SDS011;35400;45.472;-122.822;2023-01-16T08:23:46;2.77;;;1.10;;
6374;SDS011;35400;45.472;-122.822;2023-01-16T08:26:12;2.63;;;0.90;;
6374;SDS011;35400;45.472;-122.822;2023-01-16T08:28:39;4.93;;;1.07;;
6374;SDS011;35400;45.472;-122.822;2023-01-16T08:31:07;3.03;;;1.13;;
6374;SDS011;35400;45.472;-122.822;2023-01-16T08:33:38;4.50;;;0.77;;
6374;SDS011;35400;45.472;-122.822;2023-01-16T08:36:06;2.60;;;1.10;;
6374;SDS011;35400;45.472;-122.822;2023-01-16T08:38:34;3.17;;;1.13;;
6374;SDS011;35400;45.472;-122.822;2023-01-16T08:41:01;2.93;;;1.00;;
6374;SDS011;35400;45.472;-122.822;2023-01-16T08:43:28;3.53;;;1.07;;
6374;SDS011;35400;45.472;-122.822;2023-01-16T08:46:20;4.37;;;1.00;;
6374;SDS011;35400;45.472;-122.822;2023-01-16T08:49:12;2.97;;;0.70;;
6374;SDS011;35400;45.472;-122.822;2023-01-16T08:51:58;2.77;;;0.90;;
6374;SDS011;35400;45.472;-122.822;2023-01-16T08:54:25;3.70;;;0.80;;
6374;SDS011;35400;45.472;-122.822;2023-01-16T08:56:52;2.87;;;0.80;;
6374;SDS011;35400;45.472;-122.822;2023-01-16T08:59:19;2.87;;;0.77;;
6374;SDS011;35400;45.472;-122.822;2023-01-16T09:01:46;1.73;;;0.80;;
6374;SDS011;35400;45.472;-122.822;2023-01-16T09:04:13;2.80;;;1.00;;
6374;SDS011;35400;45.472;-122.822;2023-01-16T09:06:40;4.00;;;1.23;;
6374;SDS011;35400;45.472;-122.822;2023-01-16T09:09:07;2.80;;;0.90;;
6374;SDS011;35400;45.472;-122.822;2023-01-16T09:11:34;4.80;;;1.30;;
6374;SDS011;35400;45.472;-122.822;2023-01-16T09:14:19;2.40;;;1.10;;
6374;SDS011;35400;45.472;-122.822;2023-01-16T09:16:46;2.47;;;0.80;;
6374;SDS011;35400;45.472;-122.822;2023-01-16T09:19:13;5.67;;;1.10;;
6374;SDS011;35400;45.472;-122.822;2023-01-16T09:21:40;2.00;;;1.03;;
6374;SDS011;35400;45.472;-122.822;2023-01-16T09:24:07;3.10;;;1.07;;
6374;SDS011;35400;45.472;-122.822;2023-01-16T09:26:34;1.57;;;0.90;;
6374;SDS011;35400;45.472;-122.822;2023-01-16T09:29:01;2.73;;;0.80;;
6374;SDS011;35400;45.472;-122.822;2023-01-16T09:31:27;3.77;;;1.43;;
6374;SDS011;35400;45.472;-122.822;2023-01-16T09:33:54;3.40;;;0.93;;
6374;SDS011;35400;45.472;-122.822;2023-01-16T09:36:21;3.70;;;0.77;;
6374;SDS011;35400;45.472;-122.822;2023-01-16T09:38:48;2.40;;;1.00;;
6374;SDS011;35400;45.472;-122.822;2023-01-16T09:41:15;7.40;;;1.00;;
6374;SDS011;35400;45.472;-122.822;2023-01-16T09:44:03;3.07;;;0.73;;
6374;SDS011;35400;45.472;-122.822;2023-01-16T09:46:42;1.43;;;0.70;;
6374;SDS011;35400;45.472;-122.822;2023-01-16T09:51:54;3.00;;;0.90;;
6374;SDS011;35400;45.472;-122.822;2023-01-16T09:54:49;1.77;;;0.83;;
6374;SDS011;35400;45.472;-122.822;2023-01-16T09:57:38;2.10;;;0.90;;
6374;SDS011;35400;45.472;-122.822;2023-01-16T10:00:26;3.50;;;0.77;;
6374;SDS011;35400;45.472;-122.822;2023-01-16T10:02:56;3.43;;;1.20;;
6374;SDS011;35400;45.472;-122.822;2023-01-16T10:05:24;2.20;;;0.60;;
6374;SDS011;35400;45.472;-122.822;2023-01-16T10:08:21;1.57;;;0.67;;
6374;SDS011;35400;45.472;-122.822;2023-01-16T10:11:14;2.07;;;0.90;;
6374;SDS011;35400;45.472;-122.822;2023-01-16T10:13:57;2.17;;;0.73;;
6374;SDS011;35400;45.472;-122.822;2023-01-16T10:17:50;2.47;;;0.90;;
6374;SDS011;35400;45.472;-122.822;2023-01-16T10:20:24;2.80;;;0.90;;
6374;SDS011;35400;45.472;-122.822;2023-01-16T10:25:50;4.57;;;0.77;;
6374;SDS011;35400;45.472;-122.822;2023-01-16T10:31:02;3.03;;;0.80;;
6374;SDS011;35400;45.472;-122.822;2023-01-16T10:36:15;3.40;;;0.80;;
6374;SDS011;35400;45.472;-122.822;2023-01-16T10:38:47;3.63;;;1.00;;
6374;SDS011;35400;45.472;-122.822;2023-01-16T10:41:33;3.77;;;0.90;;
6374;SDS011;35400;45.472;-122.822;2023-01-16T10:44:42;3.60;;;0.77;;
6374;SDS011;35400;45.472;-122.822;2023-01-16T10:47:38;1.97;;;0.70;;
6374;SDS011;35400;45.472;-122.822;2023-01-16T10:50:23;2.40;;;0.80;;
6374;SDS011;35400;45.472;-122.822;2023-01-16T10:52:51;2.30;;;0.70;;
6374;SDS011;35400;45.472;-122.822;2023-01-16T10:55:20;2.60;;;0.70;;
6374;SDS011;35400;45.472;-122.822;2023-01-16T10:57:54;2.60;;;0.90;;
6374;SDS011;35400;45.472;-122.822;2023-01-16T11:00:29;3.20;;;0.97;;
6374;SDS011;35400;45.472;-122.822;2023-01-16T11:03:12;2.07;;;0.70;;
6374;SDS011;35400;45.472;-122.822;2023-01-16T11:05:46;1.17;;;0.60;;
6374;SDS011;35400;45.472;-122.822;2023-01-16T11:08:15;1.90;;;0.70;;
6374;SDS011;35400;45.472;-122.822;2023-01-16T11:10:45;4.17;;;1.13;;
6374;SDS011;35400;45.472;-122.822;2023-01-16T11:13:19;1.30;;;0.80;;
6374;SDS011;35400;45.472;-122.822;2023-01-16T11:18:58;2.07;;;0.80;;
6374;SDS011;35400;45.472;-122.822;2023-01-16T11:21:42;4.10;;;0.93;;
6374;SDS011;35400;45.472;-122.822;2023-01-16T11:24:21;3.10;;;1.20;;
6374;SDS011;35400;45.472;-122.822;2023-01-16T11:26:51;6.17;;;1.20;;
6374;SDS011;35400;45.472;-122.822;2023-01-16T11:29:20;2.20;;;1.40;;
6374;SDS011;35400;45.472;-122.822;2023-01-16T11:32:08;3.20;;;1.33;;
6374;SDS011;35400;45.472;-122.822;2023-01-16T11:34:37;3.83;;;1.40;;
6374;SDS011;35400;45.472;-122.822;2023-01-16T11:37:09;4.40;;;1.20;;
6374;SDS011;35400;45.472;-122.822;2023-01-16T11:39:39;2.43;;;1.00;;
6374;SDS011;35400;45.472;-122.822;2023-01-16T11:42:11;2.50;;;0.90;;
6374;SDS011;35400;45.472;-122.822;2023-01-16T11:44:58;1.27;;;0.83;;
6374;SDS011;35400;45.472;-122.822;2023-01-16T11:47:54;3.83;;;0.90;;
6374;SDS011;35400;45.472;-122.822;2023-01-16T11:50:29;3.57;;;1.00;;
6374;SDS011;35400;45.472;-122.822;2023-01-16T11:52:59;1.30;;;0.80;;
6374;SDS011;35400;45.472;-122.822;2023-01-16T11:55:30;1.00;;;0.73;;
6374;SDS011;35400;45.472;-122.822;2023-01-16T12:03:33;1.67;;;0.70;;
6374;SDS011;35400;45.472;-122.822;2023-01-16T12:06:25;1.23;;;0.90;;
6374;SDS011;35400;45.472;-122.822;2023-01-16T12:14:26;3.60;;;0.80;;
6374;SDS011;35400;45.472;-122.822;2023-01-16T12:20:49;1.30;;;0.77;;
6374;SDS011;35400;45.472;-122.822;2023-01-16T12:36:52;3.17;;;0.80;;
6374;SDS011;35400;45.472;-122.822;2023-01-16T12:39:55;4.60;;;1.23;;
6374;SDS011;35400;45.472;-122.822;2023-01-16T12:42:50;1.13;;;1.00;;
6374;SDS011;35400;45.472;-122.822;2023-01-16T12:45:58;2.40;;;0.87;;
6374;SDS011;35400;45.472;-122.822;2023-01-16T12:51:09;1.20;;;0.60;;
6374;SDS011;35400;45.472;-122.822;2023-01-16T12:59:51;1.10;;;0.90;;
6374;SDS011;35400;45.472;-122.822;2023-01-16T13:02:57;2.93;;;0.87;;
6374;SDS011;35400;45.472;-122.822;2023-01-16T13:05:37;1.87;;;1.17;;
6374;SDS011;35400;45.472;-122.822;2023-01-16T13:08:23;3.50;;;0.50;;
6374;SDS011;35400;45.472;-122.822;2023-01-16T13:10:56;2.67;;;1.27;;
6374;SDS011;35400;45.472;-122.822;2023-01-16T13:13:49;1.57;;;1.27;;
6374;SDS011;35400;45.472;-122.822;2023-01-16T13:16:30;1.93;;;1.40;;
6374;SDS011;35400;45.472;-122.822;2023-01-16T13:19:06;3.50;;;1.47;;
6374;SDS011;35400;45.472;-122.822;2023-01-16T13:24:49;1.70;;;1.30;;
6374;SDS011;35400;45.472;-122.822;2023-01-16T13:27:40;3.63;;;1.90;;
6374;SDS011;35400;45.472;-122.822;2023-01-16T13:30:14;2.97;;;2.60;;
6374;SDS011;35400;45.472;-122.822;2023-01-16T13:32:44;12.37;;;9.47;;
6374;SDS011;35400;45.472;-122.822;2023-01-16T13:35:27;9.87;;;8.13;;
6374;SDS011;35400;45.472;-122.822;2023-01-16T13:41:29;7.00;;;4.77;;
6374;SDS011;35400;45.472;-122.822;2023-01-16T13:44:07;4.33;;;3.93;;
6374;SDS011;35400;45.472;-122.822;2023-01-16T13:47:08;2.97;;;1.40;;
6374;SDS011;35400;45.472;-122.822;2023-01-16T13:49:37;2.57;;;1.73;;
6374;SDS011;35400;45.472;-122.822;2023-01-16T13:52:04;2.67;;;1.23;;
6374;SDS011;35400;45.472;-122.822;2023-01-16T13:54:47;2.90;;;1.20;;
6374;SDS011;35400;45.472;-122.822;2023-01-16T13:57:20;1.83;;;1.00;;
6374;SDS011;35400;45.472;-122.822;2023-01-16T13:59:52;2.87;;;1.30;;
6374;SDS011;35400;45.472;-122.822;2023-01-16T14:05:16;1.67;;;1.20;;
6374;SDS011;35400;45.472;-122.822;2023-01-16T14:15:51;3.27;;;1.50;;
6374;SDS011;35400;45.472;-122.822;2023-01-16T14:23:54;3.13;;;1.37;;
6374;SDS011;35400;45.472;-122.822;2023-01-16T14:26:34;2.23;;;1.30;;
6374;SDS011;35400;45.472;-122.822;2023-01-16T14:29:29;2.27;;;1.50;;
6374;SDS011;35400;45.472;-122.822;2023-01-16T14:34:32;2.93;;;1.17;;
6374;SDS011;35400;45.472;-122.822;2023-01-16T14:39:57;3.07;;;1.90;;
6374;SDS011;35400;45.472;-122.822;2023-01-16T14:42:34;3.67;;;1.50;;
6374;SDS011;35400;45.472;-122.822;2023-01-16T14:48:14;3.37;;;3.07;;
6374;SDS011;35400;45.472;-122.822;2023-01-16T14:56:57;6.40;;;4.07;;
6374;SDS011;35400;45.472;-122.822;2023-01-16T14:59:36;4.10;;;2.83;;
6374;SDS011;35400;45.472;-122.822;2023-01-16T15:02:17;4.17;;;2.50;;
6374;SDS011;35400;45.472;-122.822;2023-01-16T15:05:05;4.00;;;2.27;;
6374;SDS011;35400;45.472;-122.822;2023-01-16T15:07:44;3.27;;;1.70;;
6374;SDS011;35400;45.472;-122.822;2023-01-16T15:16:21;3.80;;;2.23;;
6374;SDS011;35400;45.472;-122.822;2023-01-16T15:19:17;4.93;;;2.83;;
6374;SDS011;35400;45.472;-122.822;2023-01-16T15:22:13;3.27;;;2.07;;
6374;SDS011;35400;45.472;-122.822;2023-01-16T15:24:44;4.27;;;2.50;;
6374;SDS011;35400;45.472;-122.822;2023-01-16T15:27:26;3.97;;;2.53;;
6374;SDS011;35400;45.472;-122.822;2023-01-16T15:32:27;6.73;;;2.20;;
6374;SDS011;35400;45.472;-122.822;2023-01-16T15:37:52;5.70;;;1.60;;
6374;SDS011;35400;45.472;-122.822;2023-01-16T15:40:21;3.20;;;2.20;;
6374;SDS011;35400;45.472;-122.822;2023-01-16T15:42:48;4.07;;;2.40;;
6374;SDS011;35400;45.472;-122.822;2023-01-16T15:45:33;2.23;;;1.93;;
6374;SDS011;35400;45.472;-122.822;2023-01-16T15:48:31;3.13;;;2.00;;
6374;SDS011;35400;45.472;-122.822;2023-01-16T15:51:10;3.77;;;1.97;;
6374;SDS011;35400;45.472;-122.822;2023-01-16T15:53:42;4.13;;;2.23;;
6374;SDS011;35400;45.472;-122.822;2023-01-16T15:56:47;3.77;;;2.10;;
6374;SDS011;35400;45.472;-122.822;2023-01-16T15:59:21;3.40;;;2.00;;
6374;SDS011;35400;45.472;-122.822;2023-01-16T16:04:58;3.17;;;1.97;;
6374;SDS011;35400;45.472;-122.822;2023-01-16T16:07:26;3.97;;;2.50;;
6374;SDS011;35400;45.472;-122.822;2023-01-16T16:09:56;3.47;;;2.20;;
6374;SDS011;35400;45.472;-122.822;2023-01-16T16:12:26;4.33;;;1.70;;
6374;SDS011;35400;45.472;-122.822;2023-01-16T16:20:42;3.13;;;1.67;;
6374;SDS011;35400;45.472;-122.822;2023-01-16T16:25:46;3.90;;;1.83;;
6374;SDS011;35400;45.472;-122.822;2023-01-16T16:28:22;2.10;;;1.73;;
6374;SDS011;35400;45.472;-122.822;2023-01-16T16:30:55;2.17;;;1.43;;
6374;SDS011;35400;45.472;-122.822;2023-01-16T16:33:25;2.13;;;1.80;;
6374;SDS011;35400;45.472;-122.822;2023-01-16T16:35:53;2.10;;;1.60;;
6374;SDS011;35400;45.472;-122.822;2023-01-16T16:38:30;2.20;;;2.00;;
6374;SDS011;35400;45.472;-122.822;2023-01-16T16:44:14;2.00;;;1.60;;
6374;SDS011;35400;45.472;-122.822;2023-01-16T16:48:53;5.63;;;2.23;;
6374;SDS011;35400;45.472;-122.822;2023-01-16T16:51:35;6.03;;;2.33;;
6374;SDS011;35400;45.472;-122.822;2023-01-16T16:54:09;4.43;;;2.43;;
6374;SDS011;35400;45.472;-122.822;2023-01-16T16:56:46;2.83;;;2.50;;
6374;SDS011;35400;45.472;-122.822;2023-01-16T16:59:22;3.43;;;2.13;;
6374;SDS011;35400;45.472;-122.822;2023-01-16T17:01:56;3.73;;;2.57;;
6374;SDS011;35400;45.472;-122.822;2023-01-16T17:04:29;6.67;;;2.80;;
6374;SDS011;35400;45.472;-122.822;2023-01-16T17:06:56;3.77;;;2.50;;
6374;SDS011;35400;45.472;-122.822;2023-01-16T17:09:25;3.73;;;2.20;;
6374;SDS011;35400;45.472;-122.822;2023-01-16T17:12:05;6.20;;;2.40;;
6374;SDS011;35400;45.472;-122.822;2023-01-16T17:14:45;5.40;;;3.57;;
6374;SDS011;35400;45.472;-122.822;2023-01-16T17:17:13;5.00;;;2.80;;
6374;SDS011;35400;45.472;-122.822;2023-01-16T17:19:43;4.47;;;3.17;;
6374;SDS011;35400;45.472;-122.822;2023-01-16T17:22:11;10.23;;;5.90;;
6374;SDS011;35400;45.472;-122.822;2023-01-16T17:24:38;11.83;;;7.70;;
6374;SDS011;35400;45.472;-122.822;2023-01-16T17:27:05;5.87;;;4.73;;
6374;SDS011;35400;45.472;-122.822;2023-01-16T17:29:35;5.07;;;4.00;;
6374;SDS011;35400;45.472;-122.822;2023-01-16T17:32:29;5.40;;;3.60;;
6374;SDS011;35400;45.472;-122.822;2023-01-16T17:34:56;6.70;;;3.87;;
6374;SDS011;35400;45.472;-122.822;2023-01-16T17:37:23;6.50;;;3.87;;
6374;SDS011;35400;45.472;-122.822;2023-01-16T17:39:51;5.33;;;3.20;;
6374;SDS011;35400;45.472;-122.822;2023-01-16T17:42:18;4.07;;;3.23;;
6374;SDS011;35400;45.472;-122.822;2023-01-16T17:44:44;3.93;;;3.00;;
6374;SDS011;35400;45.472;-122.822;2023-01-16T17:47:30;4.03;;;2.60;;
6374;SDS011;35400;45.472;-122.822;2023-01-16T17:49:57;4.37;;;2.37;;